Time;durP1;ratioP1;P1;durP2;ratioP2;P2;SDS_P1;SDS_P2;PMS_P1;PMS_P2;Temp;Humidity;BMP_temperature;BMP_pressure;BME280_temperature;BME280_humidity;BME280_pressure;Samples;Min_cycle;Max_cycle;Signal;HPM_P1;HPM_P2
2021/09/14 03:13:20;;;;;;;;;;;;;;;5.52;93.26;99458.56;5434857;23;20366;-82
2021/09/14 03:15:45;;;;;;;;;;;;;;;5.54;93.53;99455.00;5075150;28;19924;-82
2021/09/14 03:18:11;;;;;;;;;;;;;;;5.57;93.47;99457.53;5074747;28;19927;-82
2021/09/14 03:20:36;;;;;;;;;;;;;;;5.55;93.69;99454.09;5075075;28;19943;-83
2021/09/14 03:23:02;;;;;;;;;;;;;;;5.51;93.79;99452.44;5074521;28;19930;-83
2021/09/14 03:25:27;;;;;;;;;;;;;;;5.53;94.11;99455.03;5074976;28;19973;-83
2021/09/14 03:27:52;;;;;;;;;;;;;;;5.55;94.74;99448.84;5073549;28;19946;-82
2021/09/14 03:30:18;;;;;;;;;;;;;;;5.66;96.82;99443.25;5074854;28;20327;-82
2021/09/14 03:32:43;;;;;;;;;;;;;;;5.87;98.61;99436.56;5074740;28;19916;-83
2021/09/14 03:35:08;;;;;;;;;;;;;;;6.07;99.70;99435.13;5074742;28;19920;-83
2021/09/14 03:37:34;;;;;;;;;;;;;;;6.11;99.41;99439.38;5074169;28;20367;-83
2021/09/14 03:39:59;;;;;;;;;;;;;;;6.15;99.23;99435.75;5074583;28;20402;-82
2021/09/14 03:42:24;;;;;;;;;;;;;;;6.27;100.00;99434.50;5073398;28;19977;-83
2021/09/14 03:44:50;;;;;;;;;;;;;;;6.41;100.00;99428.81;5074610;28;19916;-83
2021/09/14 03:47:15;;;;;;;;;;;;;;;6.52;100.00;99432.81;5073252;28;19927;-83
2021/09/14 03:49:41;;;;;;;;;;;;;;;6.34;100.00;99426.38;5074482;28;19921;-83
2021/09/14 03:52:06;;;;;;;;;;;;;;;6.35;99.81;99417.59;5074340;28;19966;-83
2021/09/14 03:54:31;;;;;;;;;;;;;;;6.27;99.88;99419.59;5072031;28;19917;-83
2021/09/14 03:56:57;;;;;;;;;;;;;;;6.25;100.00;99423.16;5073094;28;20387;-83
2021/09/14 03:59:22;;;;;;;;;;;;;;;6.49;100.00;99422.41;5074267;28;19920;-83
2021/09/14 04:01:52;;;;;;;;;;;;;;;6.70;100.00;99423.50;5072621;28;19968;-83
2021/09/14 04:09:36;;;;;;;;;;;;;;;6.40;100.00;99413.94;5074287;28;20378;-83
2021/09/14 04:12:01;;;;;;;;;;;;;;;6.33;100.00;99402.75;5071788;28;19921;-83
2021/09/14 04:14:29;;;;;;;;;;;;;;;6.33;100.00;99402.75;5073834;28;20286;-84
2021/09/14 04:16:54;;;;;;;;;;;;;;;6.20;100.00;99402.25;5072837;28;19921;-84
2021/09/14 04:19:20;;;;;;;;;;;;;;;6.18;100.00;99407.56;5073271;28;20022;-84
2021/09/14 04:21:45;;;;;;;;;;;;;;;6.07;100.00;99398.31;5073965;28;19974;-84
2021/09/14 04:24:10;;;;;;;;;;;;;;;6.10;100.00;99392.94;5073864;28;19920;-83
2021/09/14 04:26:36;;;;;;;;;;;;;;;6.04;99.46;99391.34;5072731;28;19916;-83
2021/09/14 04:29:01;;;;;;;;;;;;;;;5.99;100.00;99399.38;5073437;28;19927;-83
2021/09/14 04:31:26;;;;;;;;;;;;;;;5.99;99.74;99407.28;5073729;28;19917;-83
2021/09/14 04:33:51;;;;;;;;;;;;;;;5.91;99.99;99403.13;5073546;28;19920;-83
2021/09/14 04:36:17;;;;;;;;;;;;;;;5.98;99.44;99405.56;5073189;28;19966;-83
2021/09/14 04:38:42;;;;;;;;;;;;;;;5.87;99.66;99407.63;5073530;28;19921;-83
2021/09/14 04:41:08;;;;;;;;;;;;;;;5.90;99.52;99415.41;5073452;28;20271;-83
2021/09/14 04:43:33;;;;;;;;;;;;;;;5.87;98.85;99402.38;5072107;28;20394;-83
2021/09/14 08:03:23;;;;;;;;;;;;;;;15.92;83.04;99406.31;5021160;28;20394;-81
2021/09/14 08:05:48;;;;;;;;;;;;;;;17.63;74.72;99408.81;5032048;28;19925;-82
2021/09/14 08:08:13;;;;;;;;;;;;;;;17.70;73.38;99410.06;5032327;28;19924;-80
2021/09/14 08:10:38;;;;;;;;;;;;;;;18.25;73.24;99404.84;5033065;28;19924;-80
2021/09/14 08:13:04;;;;;;;;;;;;;;;12.85;88.19;99417.94;5033999;28;19917;-87
2021/09/14 08:15:29;;;;;;;;;;;;;;;10.62;96.40;99436.75;5033394;28;19925;-88
2021/09/14 08:17:55;;;;;;;;;;;;;;;9.62;98.90;99442.25;5031721;28;20273;-88
2021/09/14 08:20:22;;;;;;;;;;;;;;;9.08;99.89;99439.28;5034268;28;19944;-87
2021/09/14 08:22:47;;;;;;;;;;;;;;;8.72;99.29;99433.72;5033148;28;19917;-88
2021/09/14 08:25:13;;;;;;;;;;;;;;;8.44;99.44;99421.66;5032470;28;19917;-89
2021/09/14 08:27:38;;;;;;;;;;;;;;;8.28;98.84;99421.38;5032981;28;19928;-88
2021/09/14 08:30:04;;;;;;;;;;;;;;;8.14;98.79;99408.69;5034158;28;19917;-88
2021/09/14 08:32:29;;;;;;;;;;;;;;;8.08;97.29;99398.38;5030960;28;19928;-89
2021/09/14 08:34:55;;;;;;;;;;;;;;;7.96;97.49;99412.03;5032420;28;19917;-87
2021/09/14 08:37:20;;;;;;;;;;;;;;;7.93;97.31;99414.78;5033671;28;19964;-90
2021/09/14 08:39:45;;;;;;;;;;;;;;;7.87;97.67;99431.72;5032226;28;20380;-88
2021/09/14 08:42:12;;;;;;;;;;;;;;;7.82;97.21;99436.31;5032516;28;19921;-88
2021/09/14 08:44:40;;;;;;;;;;;;;;;7.87;96.45;99430.88;5031436;28;19949;-86
2021/09/14 08:47:06;;;;;;;;;;;;;;;7.88;96.63;99435.19;5030215;28;19928;-88
2021/09/14 08:49:32;;;;;;;;;;;;;;;7.74;97.48;99439.22;5031627;28;20379;-88
2021/09/14 08:51:57;;;;;;;;;;;;;;;7.73;97.58;99445.41;5032269;28;20330;-88
2021/09/14 08:54:22;;;;;;;;;;;;;;;7.76;97.43;99450.56;5032071;28;20384;-87
2021/09/14 08:56:47;;;;;;;;;;;;;;;7.89;97.26;99450.13;5031565;28;20008;-88
2021/09/14 08:59:25;;;;;;;;;;;;;;;7.72;97.25;99448.97;5032064;28;19921;-88
2021/09/14 09:02:00;;;;;;;;;;;;;;;7.75;97.61;99458.53;5030707;28;20322;-87
2021/09/14 09:04:26;;;;;;;;;;;;;;;7.86;97.07;99466.06;5032388;28;19921;-87
2021/09/14 09:06:51;;;;;;;;;;;;;;;7.81;96.59;99459.16;5032819;28;19931;-87
2021/09/14 09:09:17;;;;;;;;;;;;;;;7.81;96.48;99474.16;5033066;28;20360;-88
2021/09/14 09:11:58;;;;;;;;;;;;;;;7.78;97.41;99459.28;5032025;28;19921;-86
2021/09/14 09:14:37;;;;;;;;;;;;;;;7.71;96.13;99460.44;5030360;28;20396;-87
2021/09/14 09:17:13;;;;;;;;;;;;;;;7.76;96.40;99458.47;5038711;28;20473;-87
2021/09/14 09:19:44;;;;;;;;;;;;;;;7.80;96.13;99462.75;5038951;28;19939;-87
2021/09/14 09:22:12;;;;;;;;;;;;;;;7.78;96.04;99459.28;5039035;28;19921;-87
2021/09/14 09:24:44;;;;;;;;;;;;;;;7.88;96.39;99458.94;5031008;28;19921;-88
2021/09/14 09:27:10;;;;;;;;;;;;;;;7.87;96.14;99455.47;5038460;28;19982;-88
2021/09/14 09:29:35;;;;;;;;;;;;;;;7.85;97.35;99449.38;5031661;28;19917;-87
2021/09/14 09:32:03;;;;;;;;;;;;;;;7.88;96.66;99445.75;5029458;28;19921;-87
2021/09/14 09:34:29;;;;;;;;;;;;;;;7.86;96.96;99444.97;5032002;28;19929;-87
2021/09/14 09:37:05;;;;;;;;;;;;;;;7.87;96.62;99438.78;5031168;28;19971;-87
2021/09/14 09:39:41;;;;;;;;;;;;;;;8.07;95.90;99438.84;5032486;28;19921;-87
2021/09/14 09:42:07;;;;;;;;;;;;;;;7.91;96.85;99445.66;5047011;28;19921;-87
2021/09/14 09:44:32;;;;;;;;;;;;;;;8.08;97.24;99437.94;5030850;28;19928;-88
2021/09/14 09:47:00;;;;;;;;;;;;;;;7.92;96.69;99440.31;5029911;28;19999;-87
2021/09/14 09:49:25;;;;;;;;;;;;;;;8.17;97.42;99453.44;5030988;28;19987;-88
2021/09/14 09:51:52;;;;;;;;;;;;;;;7.96;96.54;99454.25;5031779;28;20379;-88
2021/09/14 09:54:18;;;;;;;;;;;;;;;7.92;96.93;99465.84;5030852;28;19964;-88
2021/09/14 09:56:45;;;;;;;;;;;;;;;8.00;97.01;99453.22;5040396;28;20027;-88
2021/09/14 09:59:11;;;;;;;;;;;;;;;8.08;97.09;99451.16;5031403;28;19921;-87
2021/09/14 10:01:36;;;;;;;;;;;;;;;7.97;97.32;99451.53;5030149;28;19924;-88
2021/09/14 10:04:05;;;;;;;;;;;;;;;8.09;97.61;99439.69;5030524;28;19921;-87
2021/09/14 10:06:32;;;;;;;;;;;;;;;8.09;97.43;99447.59;5030334;28;19921;-88
2021/09/14 10:08:57;;;;;;;;;;;;;;;8.06;97.82;99441.56;5031006;28;19921;-88
2021/09/14 10:11:24;;;;;;;;;;;;;;;8.01;98.10;99431.22;5028657;28;19921;-87
2021/09/14 10:13:49;;;;;;;;;;;;;;;8.10;98.96;99444.03;5030828;28;19921;-87
2021/09/14 10:16:24;;;;;;;;;;;;;;;8.17;97.60;99437.59;5031135;28;19992;-88
2021/09/14 10:18:49;;;;;;;;;;;;;;;8.38;97.71;99429.78;5029950;28;20287;-88
2021/09/14 10:21:19;;;;;;;;;;;;;;;8.39;97.91;99427.97;5030659;28;19921;-88
2021/09/14 10:23:52;;;;;;;;;;;;;;;8.22;96.28;99432.16;5030482;28;19921;-88
2021/09/14 10:26:17;;;;;;;;;;;;;;;8.18;97.52;99441.09;5040949;28;19921;-88
2021/09/14 10:28:56;;;;;;;;;;;;;;;;;;;;;
2021/09/14 10:31:38;;;;;;;;;;;;;;;;;;;;;
2021/09/14 10:34:20;;;;;;;;;;;;;;;;;;;;;
2021/09/14 10:40:24;;;;;;;;;;;;;;;;;;;;;
2021/09/14 10:43:00;;;;;;;;;;;;;;;8.18;97.52;99412.94;5032716;28;19921;-92
2021/09/14 10:45:35;;;;;;;;;;;;;;;;;;;;;
2021/09/14 10:48:04;;;;;;;;;;;;;;;8.21;97.81;99414.59;5032095;28;19921;-92
2021/09/14 10:50:43;;;;;;;;;;;;;;;;;;;;;
2021/09/14 10:53:31;;;;;;;;;;;;;;;;;;;;;
2021/09/14 10:56:10;;;;;;;;;;;;;;;8.24;98.14;99418.91;5032393;28;19921;-91
2021/09/14 10:58:44;;;;;;;;;;;;;;;8.36;98.78;99415.78;5031339;28;19913;-91
2021/09/14 11:01:21;;;;;;;;;;;;;;;8.21;97.96;99424.28;5029005;28;19964;-91
2021/09/14 11:03:51;;;;;;;;;;;;;;;8.24;97.95;99425.03;5034533;28;19921;-92
2021/09/14 11:06:27;;;;;;;;;;;;;;;8.16;98.43;99421.81;5034028;28;19921;-90
2021/09/14 11:09:19;;;;;;;;;;;;;;;8.26;98.51;99417.03;5046110;28;20509;-91
2021/09/14 11:12:02;;;;;;;;;;;;;;;8.30;98.36;99421.31;5020842;28;20402;-91
2021/09/14 11:17:51;;;;;;;;;;;;;;;8.25;97.90;99426.75;5020627;28;19928;-92
2021/09/14 11:20:30;;;;;;;;;;;;;;;;;;;;;
2021/09/14 11:22:56;;;;;;;;;;;;;;;8.39;98.74;99425.34;5036359;28;20384;-91
2021/09/14 11:25:39;;;;;;;;;;;;;;;8.33;97.74;99423.81;5033844;28;20024;-90
2021/09/14 11:28:12;;;;;;;;;;;;;;;8.31;97.74;99425.63;5033991;28;19929;-89
2021/09/14 11:30:40;;;;;;;;;;;;;;;8.30;98.91;99430.06;5050182;28;19923;-91
2021/09/14 11:33:18;;;;;;;;;;;;;;;8.28;98.32;99423.13;5034322;28;19917;-92
2021/09/14 11:35:46;;;;;;;;;;;;;;;8.29;98.23;99424.84;5044031;28;19925;-92
2021/09/14 11:38:12;;;;;;;;;;;;;;;8.37;99.01;99438.59;5049657;28;19925;-91
2021/09/14 11:40:44;;;;;;;;;;;;;;;8.29;98.22;99441.53;5034372;28;20279;-91
2021/09/14 11:43:12;;;;;;;;;;;;;;;8.30;98.51;99430.06;5043149;28;19957;-91
2021/09/14 11:45:37;;;;;;;;;;;;;;;8.36;98.02;99434.25;5033847;28;19979;-91
2021/09/14 11:48:10;;;;;;;;;;;;;;;8.41;97.14;99436.69;5033950;28;19928;-91
2021/09/14 11:50:36;;;;;;;;;;;;;;;8.44;97.36;99436.59;5034576;28;20003;-90
2021/09/14 11:53:14;;;;;;;;;;;;;;;;;;;;;
2021/09/14 11:55:41;;;;;;;;;;;;;;;8.44;96.76;99440.13;5035056;28;19927;-89
2021/09/14 11:58:06;;;;;;;;;;;;;;;8.36;97.06;99434.25;5033999;28;19917;-89
2021/09/14 12:00:35;;;;;;;;;;;;;;;8.47;97.00;99442.66;5034235;28;20024;-89
2021/09/14 12:03:01;;;;;;;;;;;;;;;8.43;97.36;99451.59;5032375;28;19921;-89
2021/09/14 12:05:26;;;;;;;;;;;;;;;8.36;98.22;99445.66;5034293;28;19932;-88
2021/09/14 12:07:56;;;;;;;;;;;;;;;8.39;98.13;99444.66;5040769;28;19936;-88
2021/09/14 12:10:21;;;;;;;;;;;;;;;8.37;98.35;99439.44;5041161;28;19917;-89
2021/09/14 12:12:50;;;;;;;;;;;;;;;8.40;99.05;99429.72;5034097;28;19967;-88
2021/09/14 12:15:15;;;;;;;;;;;;;;;8.38;98.95;99429.78;5031907;28;20003;-88
2021/09/14 12:17:41;;;;;;;;;;;;;;;8.41;97.66;99427.00;5031352;28;20011;-88
2021/09/14 12:20:06;;;;;;;;;;;;;;;8.35;97.89;99428.09;5032983;28;19964;-89
2021/09/14 12:22:32;;;;;;;;;;;;;;;8.46;97.37;99432.16;5032648;28;20007;-88
2021/09/14 12:24:57;;;;;;;;;;;;;;;8.35;97.59;99425.47;5032404;28;19928;-87
2021/09/14 12:27:22;;;;;;;;;;;;;;;8.39;98.36;99426.19;5032411;28;19917;-87
2021/09/14 12:29:47;;;;;;;;;;;;;;;8.38;98.71;99424.50;5032461;28;19975;-87
2021/09/14 12:32:13;;;;;;;;;;;;;;;8.43;97.51;99414.63;5032076;28;19917;-88
2021/09/14 12:34:38;;;;;;;;;;;;;;;8.42;97.39;99417.31;5033629;28;19972;-87
2021/09/14 12:37:03;;;;;;;;;;;;;;;8.43;97.66;99403.19;5032051;28;19921;-88
2021/09/14 12:39:29;;;;;;;;;;;;;;;8.53;97.17;99401.91;5030774;28;19974;-88
2021/09/14 12:41:54;;;;;;;;;;;;;;;8.44;96.91;99399.66;5040463;28;19917;-87
2021/09/14 12:44:20;;;;;;;;;;;;;;;8.41;97.29;99397.97;5032475;28;20805;-88
2021/09/14 12:46:46;;;;;;;;;;;;;;;8.47;97.27;99389.84;5031279;28;19921;-89
2021/09/14 12:49:11;;;;;;;;;;;;;;;8.36;97.94;99386.75;5032904;28;19925;-89
2021/09/14 12:51:36;;;;;;;;;;;;;;;8.39;98.21;99388.38;5032001;28;19928;-88
2021/09/14 12:54:02;;;;;;;;;;;;;;;8.36;98.35;99389.38;5032074;28;20012;-88
2021/09/14 12:56:27;;;;;;;;;;;;;;;8.45;98.25;99393.44;5031592;28;19925;-87
2021/09/14 12:58:52;;;;;;;;;;;;;;;8.46;97.93;99390.75;5032947;28;19925;-88
2021/09/14 13:01:18;;;;;;;;;;;;;;;8.34;98.43;99392.09;5030995;28;19927;-86
2021/09/14 13:03:43;;;;;;;;;;;;;;;8.43;98.57;99390.00;5031943;28;19983;-87
2021/09/14 13:06:09;;;;;;;;;;;;;;;8.36;98.34;99392.03;5031879;28;20392;-88
2021/09/14 13:08:34;;;;;;;;;;;;;;;8.45;97.94;99386.38;5031387;28;19921;-89
2021/09/14 13:10:59;;;;;;;;;;;;;;;8.40;97.36;99388.31;5031635;28;19967;-88
2021/09/14 13:16:11;;;;;;;;;;;;;;;8.34;97.88;99372.72;5031383;28;19932;-88
2021/09/14 13:18:40;;;;;;;;;;;;;;;8.39;97.35;99368.13;5032475;28;19929;-88
2021/09/14 13:21:06;;;;;;;;;;;;;;;8.40;98.13;99375.13;5038297;28;20368;-88
2021/09/14 13:23:32;;;;;;;;;;;;;;;8.36;97.46;99369.13;5031775;28;19952;-89
2021/09/14 13:25:57;;;;;;;;;;;;;;;8.41;97.92;99374.22;5032810;28;19921;-88
2021/09/14 13:28:22;;;;;;;;;;;;;;;8.41;97.91;99374.22;5031334;28;19928;-86
2021/09/14 13:30:48;;;;;;;;;;;;;;;8.38;97.53;99374.34;5031233;28;19971;-89
2021/09/14 13:33:13;;;;;;;;;;;;;;;8.48;97.06;99367.78;5031021;28;20283;-87
2021/09/14 13:35:39;;;;;;;;;;;;;;;8.43;97.13;99366.22;5031054;28;19921;-86
2021/09/14 13:38:04;;;;;;;;;;;;;;;8.39;97.36;99359.34;5031070;28;19971;-88
2021/09/14 13:40:29;;;;;;;;;;;;;;;8.36;98.02;99350.63;5030928;28;19978;-87
2021/09/14 13:42:57;;;;;;;;;;;;;;;8.37;98.01;99356.75;5030863;28;20019;-88
2021/09/14 13:48:07;;;;;;;;;;;;;;;8.45;97.42;99362.63;5030810;28;19983;-88
2021/09/14 13:50:33;;;;;;;;;;;;;;;8.42;98.12;99359.22;5031107;28;19928;-89
2021/09/14 13:52:58;;;;;;;;;;;;;;;8.34;97.89;99363.03;5025747;28;20003;-88
2021/09/14 13:55:24;;;;;;;;;;;;;;;8.41;98.41;99362.78;5032315;28;20008;-88
2021/09/14 13:57:51;;;;;;;;;;;;;;;8.41;98.43;99373.31;5029055;28;20079;-87
2021/09/14 14:00:17;;;;;;;;;;;;;;;8.45;97.76;99381.09;5029788;28;20364;-87
2021/09/14 14:02:43;;;;;;;;;;;;;;;8.50;97.96;99384.44;5029007;28;19921;-86
2021/09/14 14:05:09;;;;;;;;;;;;;;;8.42;98.39;99383.84;5030822;28;20402;-88
2021/09/14 14:07:35;;;;;;;;;;;;;;;8.37;99.05;99378.72;5031052;28;19928;-87
2021/09/14 14:10:00;;;;;;;;;;;;;;;8.43;98.83;99372.38;5029647;28;19917;-86
2021/09/14 14:12:26;;;;;;;;;;;;;;;8.39;98.77;99369.91;5037699;28;19929;-85
2021/09/14 14:14:51;;;;;;;;;;;;;;;8.41;98.71;99382.13;5023525;28;19921;-87
2021/09/14 14:17:17;;;;;;;;;;;;;;;8.35;99.23;99380.59;5029871;28;19921;-86
2021/09/14 14:19:43;;;;;;;;;;;;;;;8.40;99.51;99392.75;5030194;28;19917;-86
2021/09/14 14:22:08;;;;;;;;;;;;;;;8.39;99.71;99396.31;5030626;28;20284;-88
2021/09/14 14:24:34;;;;;;;;;;;;;;;8.42;99.89;99401.47;5046361;28;20011;-88
2021/09/14 14:26:59;;;;;;;;;;;;;;;8.44;99.99;99394.38;5030532;28;20279;-87
2021/09/14 14:29:25;;;;;;;;;;;;;;;8.46;99.73;99401.31;5032168;28;19921;-87
2021/09/14 14:31:50;;;;;;;;;;;;;;;8.44;100.00;99395.25;5029194;28;19917;-87
2021/09/14 14:34:16;;;;;;;;;;;;;;;8.43;100.00;99393.50;5030369;28;20470;-88
2021/09/14 14:36:41;;;;;;;;;;;;;;;8.47;100.00;99392.47;5030145;28;20391;-87
2021/09/14 14:39:06;;;;;;;;;;;;;;;8.55;100.00;99397.44;5034246;28;19921;-88
2021/09/14 14:41:32;;;;;;;;;;;;;;;8.53;100.00;99405.41;5029794;28;19921;-89
2021/09/14 14:43:57;;;;;;;;;;;;;;;8.69;100.00;99394.22;5034196;28;19933;-87
2021/09/14 14:46:22;;;;;;;;;;;;;;;8.62;100.00;99404.19;5039810;28;20371;-88
2021/09/14 14:48:47;;;;;;;;;;;;;;;8.53;99.87;99408.06;5035565;28;19932;-88
2021/09/14 14:51:13;;;;;;;;;;;;;;;8.62;100.00;99409.47;5034117;28;19925;-88
2021/09/14 14:53:38;;;;;;;;;;;;;;;8.53;100.00;99409.84;5033933;28;20372;-87
2021/09/14 14:56:03;;;;;;;;;;;;;;;8.54;100.00;99409.78;5042982;28;20022;-88
2021/09/14 14:58:29;;;;;;;;;;;;;;;8.68;99.63;99411.00;5033883;28;19925;-87
2021/09/14 15:00:55;;;;;;;;;;;;;;;8.58;100.00;99417.56;5033462;28;20012;-85
2021/09/14 15:03:21;;;;;;;;;;;;;;;8.79;100.00;99411.44;5033266;28;19929;-87
2021/09/14 15:05:47;;;;;;;;;;;;;;;8.55;100.00;99413.28;5034693;28;20376;-89
2021/09/14 15:08:12;;;;;;;;;;;;;;;8.68;99.56;99409.22;5033260;28;19929;-87
2021/09/14 15:10:37;;;;;;;;;;;;;;;8.59;99.83;99406.97;5035199;28;19925;-88
2021/09/14 15:13:03;;;;;;;;;;;;;;;8.51;100.00;99407.25;5033658;28;19917;-88
2021/09/14 15:15:28;;;;;;;;;;;;;;;8.54;99.69;99409.78;5033473;28;19928;-87
2021/09/14 15:17:53;;;;;;;;;;;;;;;8.61;99.32;99406.91;5033440;28;20545;-87
2021/09/14 15:20:19;;;;;;;;;;;;;;;8.59;98.87;99403.47;5035167;28;20012;-87
2021/09/14 15:22:45;;;;;;;;;;;;;;;8.70;99.42;99406.53;5034410;28;19995;-88
2021/09/14 15:25:11;;;;;;;;;;;;;;;8.60;99.55;99395.47;5033773;28;19924;-86
2021/09/14 15:27:36;;;;;;;;;;;;;;;8.49;99.86;99397.69;5034810;28;20387;-87
2021/09/14 15:30:04;;;;;;;;;;;;;;;8.53;99.80;99402.78;5033214;28;20410;-86
2021/09/14 15:32:30;;;;;;;;;;;;;;;8.59;99.68;99400.81;5032816;28;19924;-88
2021/09/14 15:34:56;;;;;;;;;;;;;;;8.54;99.27;99396.56;5034796;28;20360;-87
2021/09/14 15:37:21;;;;;;;;;;;;;;;8.49;99.83;99393.28;5034748;28;19928;-88
2021/09/14 15:39:47;;;;;;;;;;;;;;;8.49;99.73;99384.50;5032682;28;19921;-87
2021/09/14 15:42:12;;;;;;;;;;;;;;;8.50;100.00;99383.56;5033319;28;19921;-87
2021/09/14 15:44:38;;;;;;;;;;;;;;;8.53;100.00;99375.50;5033244;28;19921;-88
2021/09/14 15:47:03;;;;;;;;;;;;;;;8.59;99.51;99377.91;5027131;28;20346;-88
2021/09/14 15:49:29;;;;;;;;;;;;;;;8.61;99.62;99365.50;5039307;28;19918;-88
2021/09/14 15:51:54;;;;;;;;;;;;;;;8.53;99.87;99362.31;5033197;28;19925;-88
2021/09/14 15:54:19;;;;;;;;;;;;;;;8.50;99.15;99360.69;5032037;28;19970;-88
2021/09/14 15:56:45;;;;;;;;;;;;;;;8.51;99.35;99364.16;5032901;28;19933;-87
2021/09/14 15:59:11;;;;;;;;;;;;;;;8.53;98.70;99357.88;5034130;28;19966;-88
2021/09/14 16:01:37;;;;;;;;;;;;;;;8.53;98.29;99349.94;5031330;28;20288;-87
2021/09/14 16:04:06;;;;;;;;;;;;;;;8.51;98.47;99350.97;5032805;28;19932;-87
2021/09/14 16:06:31;;;;;;;;;;;;;;;8.67;100.00;99353.81;5039784;28;19921;-88
2021/09/14 16:08:57;;;;;;;;;;;;;;;8.69;98.36;99351.97;5033801;28;19924;-87
2021/09/14 16:11:22;;;;;;;;;;;;;;;8.61;98.84;99343.50;5040112;28;19921;-87
2021/09/14 16:13:48;;;;;;;;;;;;;;;8.62;98.37;99347.88;5033769;28;19925;-88
2021/09/14 16:16:13;;;;;;;;;;;;;;;8.60;98.35;99347.06;5031605;28;20367;-88
2021/09/14 16:18:39;;;;;;;;;;;;;;;11.52;92.65;99332.31;5031664;28;19948;-87
2021/09/14 16:21:04;;;;;;;;;;;;;;;9.70;100.00;99327.25;5032392;28;19925;-87
2021/09/14 16:23:29;;;;;;;;;;;;;;;9.19;100.00;99327.78;5032720;28;19917;-87
2021/09/14 16:25:55;;;;;;;;;;;;;;;9.04;100.00;99321.38;5031499;28;20007;-87
2021/09/14 16:28:21;;;;;;;;;;;;;;;8.88;100.00;99323.00;5032145;28;20298;-87
2021/09/14 16:30:46;;;;;;;;;;;;;;;8.93;99.57;99322.78;5033100;28;19970;-87
2021/09/14 16:33:12;;;;;;;;;;;;;;;8.82;99.74;99320.59;5031781;28;19931;-89
2021/09/14 16:35:38;;;;;;;;;;;;;;;8.73;100.00;99313.94;5033458;28;19925;-86
2021/09/14 16:38:04;;;;;;;;;;;;;;;8.82;99.81;99316.19;5033660;28;19935;-86
2021/09/14 16:40:30;;;;;;;;;;;;;;;8.79;99.44;99304.88;5040522;28;19928;-91
2021/09/14 16:42:56;;;;;;;;;;;;;;;8.78;98.74;99314.59;5033345;28;19921;-88
2021/09/14 16:45:21;;;;;;;;;;;;;;;8.67;99.22;99322.97;5033512;28;19925;-88
2021/09/14 16:47:46;;;;;;;;;;;;;;;8.67;99.97;99315.06;5031964;28;19925;-88
2021/09/14 16:50:14;;;;;;;;;;;;;;;8.81;99.39;99317.13;5031860;28;19917;-86
2021/09/14 16:52:40;;;;;;;;;;;;;;;8.77;99.01;99318.16;5031954;28;19921;-86
2021/09/14 16:55:06;;;;;;;;;;;;;;;9.16;100.00;99321.75;5030751;28;19983;-87
2021/09/14 16:57:32;;;;;;;;;;;;;;;9.02;99.56;99309.19;5033064;28;20376;-88
2021/09/14 17:00:00;;;;;;;;;;;;;;;8.88;99.71;99320.34;5031842;28;20546;-89
2021/09/14 17:02:26;;;;;;;;;;;;;;;8.87;99.86;99319.50;5029700;28;19928;-87
2021/09/14 17:04:51;;;;;;;;;;;;;;;8.84;99.21;99303.78;5029050;28;19917;-87
2021/09/14 17:07:17;;;;;;;;;;;;;;;8.87;99.31;99313.34;5032305;28;19921;-87
2021/09/14 17:09:42;;;;;;;;;;;;;;;8.73;99.65;99311.31;5031559;28;19921;-88
2021/09/14 17:12:11;;;;;;;;;;;;;;;8.72;100.00;99314.84;5032046;28;20284;-88
2021/09/14 17:14:37;;;;;;;;;;;;;;;8.73;100.00;99321.88;5031628;28;19917;-90
2021/09/14 17:17:02;;;;;;;;;;;;;;;8.70;100.00;99328.13;5030035;28;19951;-88
2021/09/14 17:19:28;;;;;;;;;;;;;;;8.64;100.00;99322.25;5033104;28;19932;-91
2021/09/14 17:21:53;;;;;;;;;;;;;;;8.77;100.00;99320.78;5030813;28;19917;-88
2021/09/14 17:24:18;;;;;;;;;;;;;;;8.72;100.00;99321.00;5033224;28;19939;-88
2021/09/14 17:26:44;;;;;;;;;;;;;;;8.71;100.00;99316.66;5031806;28;19917;-88
2021/09/14 17:29:09;;;;;;;;;;;;;;;8.81;100.00;99317.13;5031497;28;19921;-89
2021/09/14 17:31:35;;;;;;;;;;;;;;;8.77;99.90;99312.88;5031655;28;19923;-90
2021/09/14 17:34:00;;;;;;;;;;;;;;;8.66;100.00;99312.47;5033064;28;19971;-89
2021/09/14 17:36:26;;;;;;;;;;;;;;;8.67;100.00;99316.84;5031915;28;19967;-89
2021/09/14 17:38:51;;;;;;;;;;;;;;;8.72;100.00;99312.22;5031040;28;19928;-90
2021/09/14 17:41:16;;;;;;;;;;;;;;;8.65;100.00;99303.69;5031197;28;19975;-88
2021/09/14 17:43:42;;;;;;;;;;;;;;;8.78;100.00;99304.03;5031592;28;19918;-88
2021/09/14 17:46:07;;;;;;;;;;;;;;;8.64;100.00;99301.13;5030080;28;20015;-89
2021/09/14 17:48:33;;;;;;;;;;;;;;;8.64;100.00;99301.97;5031393;28;19961;-89
2021/09/14 17:51:00;;;;;;;;;;;;;;;8.61;100.00;99301.25;5029910;28;19917;-88
2021/09/14 17:53:26;;;;;;;;;;;;;;;8.64;100.00;99303.78;5031160;28;19955;-86
2021/09/14 17:55:52;;;;;;;;;;;;;;;8.61;100.00;99307.38;5032369;28;20400;-91
2021/09/14 17:58:18;;;;;;;;;;;;;;;8.67;100.00;99307.13;5030884;28;19921;-90
2021/09/14 18:00:43;;;;;;;;;;;;;;;8.69;100.00;99307.91;5031327;28;20384;-89
2021/09/14 18:03:08;;;;;;;;;;;;;;;8.85;100.00;99309.91;5029846;28;19921;-88
2021/09/14 18:05:34;;;;;;;;;;;;;;;8.67;99.95;99308.91;5026652;28;19921;-88
2021/09/14 18:08:00;;;;;;;;;;;;;;;8.67;99.94;99306.28;5030665;28;19921;-87
2021/09/14 18:10:25;;;;;;;;;;;;;;;8.70;100.00;99306.16;5031971;28;19983;-88
2021/09/14 18:12:51;;;;;;;;;;;;;;;8.65;100.00;99308.13;5029833;28;19925;-87
2021/09/14 18:15:17;;;;;;;;;;;;;;;8.75;99.36;99303.31;5030366;28;20284;-88
2021/09/14 18:17:42;;;;;;;;;;;;;;;8.65;100.00;99303.69;5029204;28;19932;-85
2021/09/14 18:20:09;;;;;;;;;;;;;;;8.66;100.00;99299.28;5029076;28;19932;-87
2021/09/14 18:22:35;;;;;;;;;;;;;;;8.59;100.00;99295.19;5027330;28;19925;-87
2021/09/14 18:25:01;;;;;;;;;;;;;;;8.62;100.00;99302.97;5029574;28;20010;-90
2021/09/14 18:27:26;;;;;;;;;;;;;;;8.67;100.00;99311.56;5029785;28;19976;-87
2021/09/14 18:29:52;;;;;;;;;;;;;;;8.69;100.00;99307.06;5035869;28;19922;-86
2021/09/14 18:32:17;;;;;;;;;;;;;;;8.71;100.00;99311.38;5030596;28;20026;-86
2021/09/14 18:34:42;;;;;;;;;;;;;;;8.70;99.90;99324.63;5030586;28;19924;-86
2021/09/14 18:37:08;;;;;;;;;;;;;;;8.65;99.90;99321.34;5026070;28;19921;-87
2021/09/14 18:39:34;;;;;;;;;;;;;;;8.64;100.00;99327.53;5030600;28;19927;-87
2021/09/14 18:42:04;;;;;;;;;;;;;;;8.71;99.86;99323.69;5031842;28;19975;-87
2021/09/14 18:44:30;;;;;;;;;;;;;;;8.68;99.49;99322.06;5030402;28;19928;-89
2021/09/14 18:46:55;;;;;;;;;;;;;;;8.66;99.96;99325.69;5029445;28;19921;-87
2021/09/14 18:49:20;;;;;;;;;;;;;;;8.67;100.00;99333.53;5029727;28;19917;-86
2021/09/14 18:51:45;;;;;;;;;;;;;;;8.67;99.91;99344.09;5029989;28;20439;-88
2021/09/14 18:54:11;;;;;;;;;;;;;;;8.77;99.76;99333.16;5030807;28;19925;-87
2021/09/14 18:56:36;;;;;;;;;;;;;;;8.64;99.16;99328.38;5030446;28;19921;-87
2021/09/14 18:59:01;;;;;;;;;;;;;;;8.61;99.29;99325.88;5030311;28;19917;-88
2021/09/14 19:01:26;;;;;;;;;;;;;;;8.65;99.07;99323.97;5030382;28;19921;-86
2021/09/14 19:03:53;;;;;;;;;;;;;;;8.74;99.58;99328.84;5030230;28;20439;-89
2021/09/14 19:06:20;;;;;;;;;;;;;;;8.57;99.53;99326.94;5031535;28;20826;-87
2021/09/14 19:08:45;;;;;;;;;;;;;;;8.58;99.92;99330.44;5029553;28;20003;-88
2021/09/14 19:11:11;;;;;;;;;;;;;;;8.56;100.00;99332.28;5030055;28;20007;-87
2021/09/14 19:13:36;;;;;;;;;;;;;;;8.68;99.71;99329.09;5031241;28;20363;-85
2021/09/14 19:16:03;;;;;;;;;;;;;;;8.58;100.00;99333.91;5030027;28;19924;-87
2021/09/14 19:18:29;;;;;;;;;;;;;;;8.60;99.72;99337.38;5030005;28;19972;-87
2021/09/14 19:20:54;;;;;;;;;;;;;;;9.00;100.00;99340.06;5031626;28;19917;-85
2021/09/14 19:23:20;;;;;;;;;;;;;;;9.78;100.00;99333.06;5031923;28;19968;-84
2021/09/14 19:25:46;;;;;;;;;;;;;;;9.21;100.00;99333.00;5032912;28;19917;-83
2021/09/14 19:28:11;;;;;;;;;;;;;;;8.97;100.00;99334.97;5034747;28;19928;-84
2021/09/14 19:30:36;;;;;;;;;;;;;;;8.78;100.00;99341.03;5033608;28;19921;-83
2021/09/14 19:33:02;;;;;;;;;;;;;;;8.73;100.00;99337.72;5032177;28;19917;-83
2021/09/14 19:35:28;;;;;;;;;;;;;;;8.73;100.00;99335.06;5030577;28;20048;-84
2021/09/14 19:37:53;;;;;;;;;;;;;;;8.63;100.00;99337.25;5037072;28;19967;-84
2021/09/14 19:40:19;;;;;;;;;;;;;;;8.59;100.00;99329.53;5033295;28;19921;-84
2021/09/14 19:42:44;;;;;;;;;;;;;;;8.57;100.00;99333.97;5033087;28;19917;-83
2021/09/14 19:45:09;;;;;;;;;;;;;;;8.58;100.00;99328.63;5033258;28;19925;-84
2021/09/14 19:47:35;;;;;;;;;;;;;;;8.56;99.86;99329.66;5040014;28;19952;-83
2021/09/14 19:50:01;;;;;;;;;;;;;;;8.52;99.84;99332.41;5034538;28;19921;-83